Caraiba do Norte, Brazil
Current Conditions -  °F | °C
As of 12:00 AM on Saturday 20 Dec 2014 (Local Time) from SBTE Reporting Station
Broken Clouds Broken Clouds  
Wind Chill: 81°   Ceiling: 3000
Heat Index: 85°   Visibility: 6mi
Dew Point: 73°   Wind: 3mph
Humidity: 79%   Direction: 340°NNW
Pressure: 29.83"   Gusts: NA
Location:  6.42°S, 42.88°W
Report Text: SBTE 200300Z 34003KT 9999 BKN030 27/23 Q1010
Loading
Personal Weather Stations






























Interactive Weather Map New forecast layout! Learn more

10-Day Weather Forecast

Advertisements
Track Severe Weather on mobile